TimeEST,TemperatureF,Dew PointF,Humidity,Sea Level PressureIn,VisibilityMPH,Wind Direction,Wind SpeedMPH,Gust SpeedMPH,PrecipitationIn,Events,Conditions,WindDirDegrees,DateUTC
12:51 AM,27.0,19.9,75,30.12,10.0,NW,6.9,-,N/A,,Overcast,320,2012-12-28 05:51:00
1:51 AM,26.1,19.9,78,30.13,10.0,West,3.5,-,N/A,,Overcast,280,2012-12-28 06:51:00
2:51 AM,27.0,19.9,75,30.14,10.0,WNW,5.8,-,N/A,,Overcast,300,2012-12-28 07:51:00
3:51 AM,27.0,19.0,72,30.14,10.0,WNW,4.6,-,N/A,,Overcast,300,2012-12-28 08:51:00
4:51 AM,26.1,19.0,75,30.15,10.0,WNW,3.5,-,N/A,,Overcast,300,2012-12-28 09:51:00
5:51 AM,26.1,19.0,75,30.16,10.0,NW,3.5,-,N/A,,Overcast,310,2012-12-28 10:51:00
6:51 AM,24.1,19.0,81,30.17,10.0,WSW,3.5,-,N/A,,Overcast,240,2012-12-28 11:51:00
7:51 AM,24.1,18.0,77,30.16,10.0,South,3.5,-,N/A,,Overcast,190,2012-12-28 12:51:00
8:51 AM,23.0,18.0,81,30.16,10.0,South,3.5,-,N/A,,Overcast,180,2012-12-28 13:51:00
9:51 AM,26.1,19.9,78,30.16,10.0,SSW,3.5,-,N/A,,Overcast,200,2012-12-28 14:51:00
10:06 AM,26.6,19.4,74,30.12,10.0,South,4.6,-,N/A,,Overcast,180,2012-12-28 15:06:00
10:51 AM,27.0,19.9,75,30.17,10.0,Calm,Calm,-,N/A,,Overcast,0,2012-12-28 15:51:00
11:51 AM,28.0,19.9,72,30.16,10.0,SW,4.6,-,N/A,,Overcast,230,2012-12-28 16:51:00
12:51 PM,28.9,19.9,69,30.16,10.0,West,5.8,-,N/A,,Overcast,260,2012-12-28 17:51:00
1:51 PM,28.9,21.0,72,30.13,10.0,Calm,Calm,-,N/A,,Mostly Cloudy,0,2012-12-28 18:51:00
2:26 PM,30.2,19.4,64,30.08,10.0,NNE,4.6,-,N/A,,Scattered Clouds,30,2012-12-28 19:26:00
2:51 PM,30.9,19.9,64,30.11,10.0,Calm,Calm,-,N/A,,Scattered Clouds,0,2012-12-28 19:51:00
3:51 PM,28.9,19.0,67,30.07,10.0,Calm,Calm,-,N/A,,Mostly Cloudy,0,2012-12-28 20:51:00
4:51 PM,26.1,17.1,69,30.07,10.0,ESE,4.6,-,N/A,,Scattered Clouds,110,2012-12-28 21:51:00
5:51 PM,26.1,19.0,75,30.07,10.0,Calm,Calm,-,N/A,,Mostly Cloudy,0,2012-12-28 22:51:00
6:51 PM,23.0,17.1,78,30.06,10.0,ESE,3.5,-,N/A,,Scattered Clouds,120,2012-12-28 23:51:00
7:51 PM,24.8,17.6,74,30.00,10.0,East,3.5,-,N/A,,Scattered Clouds,100,2012-12-29 00:51:00
8:51 PM,21.9,17.1,82,30.01,10.0,East,6.9,-,N/A,,Scattered Clouds,80,2012-12-29 01:51:00
9:51 PM,24.8,17.6,74,29.96,10.0,SE,5.8,-,N/A,,Overcast,130,2012-12-29 02:51:00
10:51 PM,23.0,17.1,78,29.98,10.0,East,5.8,-,N/A,,Overcast,90,2012-12-29 03:51:00
11:51 PM,25.0,18.0,75,29.93,10.0,East,8.1,-,N/A,,Overcast,80,2012-12-29 04:51:00